createdAt,value
2018-07-12T00:56:51.226Z,13.40
2018-07-12T00:59:18.987Z,14.87
2018-07-12T01:01:46.676Z,13.67
2018-07-12T01:04:14.211Z,13.33
2018-07-12T01:06:41.548Z,17.33
2018-07-12T01:09:09.013Z,12.97
2018-07-12T01:11:36.485Z,12.97
2018-07-12T01:14:04.240Z,15.47
2018-07-12T01:16:31.700Z,13.77
2018-07-12T01:18:59.390Z,13.53
2018-07-12T01:21:26.810Z,13.03
2018-07-12T01:23:55.324Z,13.97
2018-07-12T01:26:22.743Z,15.50
2018-07-12T01:28:50.515Z,13.23
2018-07-12T01:31:18.910Z,13.37
2018-07-12T01:33:46.217Z,14.60
2018-07-12T01:36:14.924Z,13.53
2018-07-12T01:38:42.133Z,15.27
2018-07-12T01:41:09.605Z,14.17
2018-07-12T01:43:36.945Z,13.90
2018-07-12T01:46:04.672Z,12.60
2018-07-12T01:48:32.848Z,13.57
2018-07-12T01:51:00.194Z,13.90
2018-07-12T01:53:27.492Z,14.33
2018-07-12T01:55:55.229Z,13.03
2018-07-12T01:58:22.671Z,13.13
2018-07-12T02:00:50.451Z,13.13
2018-07-12T02:03:19.164Z,12.60
2018-07-12T02:05:46.479Z,13.20
2018-07-12T02:08:14.047Z,12.93
2018-07-12T02:10:41.914Z,13.80
2018-07-12T02:13:09.252Z,13.70
2018-07-12T02:15:36.824Z,13.20
2018-07-12T02:18:05.079Z,12.97
2018-07-12T02:20:32.846Z,14.83
2018-07-12T02:23:00.173Z,13.80
2018-07-12T02:25:27.464Z,15.43
2018-07-12T02:27:54.762Z,14.57
2018-07-12T02:30:22.071Z,13.63
2018-07-12T02:32:49.831Z,14.20
2018-07-12T02:35:17.221Z,14.17
2018-07-12T02:37:45.203Z,13.90
2018-07-12T02:40:12.542Z,14.57
2018-07-12T02:42:39.855Z,13.87
2018-07-12T02:45:07.330Z,15.10
2018-07-12T02:47:35.196Z,13.57
2018-07-12T02:50:03.044Z,14.47
2018-07-12T02:52:30.349Z,14.30
2018-07-12T02:54:57.768Z,14.00
2018-07-12T02:57:25.380Z,16.83
2018-07-12T02:59:53.328Z,14.17
2018-07-12T03:02:20.845Z,15.87
2018-07-12T03:04:48.298Z,14.83
2018-07-12T03:07:15.635Z,14.40
2018-07-12T03:09:43.007Z,14.87
2018-07-12T03:12:10.709Z,14.13
2018-07-12T03:14:38.786Z,13.70
2018-07-12T03:17:06.203Z,16.23
2018-07-12T03:19:34.155Z,14.10
2018-07-12T03:22:01.471Z,14.43
2018-07-12T03:24:28.746Z,15.17
2018-07-12T03:26:56.481Z,14.13
2018-07-12T03:29:23.798Z,15.97
2018-07-12T03:31:51.329Z,15.57
2018-07-12T03:34:19.544Z,14.87
2018-07-12T03:36:47.203Z,14.60
2018-07-12T03:39:14.532Z,15.57
2018-07-12T03:41:41.861Z,14.33
2018-07-12T03:44:09.183Z,14.20
2018-07-12T03:46:36.764Z,14.80
2018-07-12T03:49:04.109Z,15.40
2018-07-12T03:51:31.497Z,14.97
2018-07-12T03:53:58.800Z,15.07
2018-07-12T03:56:26.730Z,14.00
2018-07-12T03:58:54.664Z,15.13
2018-07-12T04:01:22.086Z,13.83
2018-07-12T04:03:49.610Z,15.27
2018-07-12T04:06:17.171Z,16.17
2018-07-12T04:08:45.278Z,17.90
2018-07-12T04:11:12.798Z,14.53
2018-07-12T04:13:40.123Z,13.70
2018-07-12T04:16:07.622Z,13.93
2018-07-12T04:18:35.195Z,14.07
2018-07-12T04:21:02.530Z,14.93
2018-07-12T04:23:30.218Z,14.03
2018-07-12T04:25:57.860Z,14.63
2018-07-12T04:28:25.414Z,15.80
2018-07-12T04:30:53.714Z,15.83
2018-07-12T04:33:21.065Z,17.50
2018-07-12T04:35:48.377Z,14.67
2018-07-12T04:38:15.749Z,14.40
2018-07-12T04:40:43.076Z,15.67
2018-07-12T04:43:10.416Z,14.23
2018-07-12T04:45:37.714Z,14.20
2018-07-12T04:48:05.053Z,14.47
2018-07-12T04:50:32.367Z,15.00
2018-07-12T04:53:00.107Z,13.07
2018-07-12T04:55:27.962Z,14.23
2018-07-12T04:57:55.458Z,14.37
2018-07-12T05:00:22.786Z,13.67
2018-07-12T05:02:50.623Z,16.37
2018-07-12T05:05:18.102Z,15.63
2018-07-12T05:07:45.711Z,13.73
2018-07-12T05:10:14.252Z,13.93
2018-07-12T05:12:41.587Z,14.17
2018-07-12T05:15:09.384Z,12.77
2018-07-12T05:17:36.696Z,15.00
2018-07-12T05:20:03.988Z,12.70
2018-07-12T05:22:31.495Z,12.10
2018-07-12T05:24:58.794Z,12.27
2018-07-12T05:27:26.197Z,14.50
2018-07-12T05:29:53.984Z,11.87
2018-07-12T05:32:21.484Z,12.10
2018-07-12T05:34:51.586Z,12.63
2018-07-12T05:37:20.675Z,14.17
2018-07-12T05:39:51.185Z,12.10
2018-07-12T05:42:19.748Z,13.30
2018-07-12T05:44:48.346Z,11.67
2018-07-12T05:47:16.814Z,12.10
2018-07-12T05:49:45.278Z,13.13
2018-07-12T05:52:13.738Z,12.20
2018-07-12T05:54:42.147Z,15.67
2018-07-12T05:57:11.206Z,13.80
2018-07-12T05:59:39.778Z,13.93
2018-07-12T06:02:20.708Z,12.57
2018-07-12T06:04:50.000Z,13.83
2018-07-12T06:07:24.024Z,11.03
2018-07-12T06:09:52.732Z,11.17
2018-07-12T06:12:21.506Z,11.30
2018-07-12T06:14:50.700Z,10.47
2018-07-12T06:17:19.341Z,10.77
2018-07-12T06:19:48.219Z,9.90
2018-07-12T06:22:17.108Z,10.60
2018-07-12T06:24:46.433Z,11.93
2018-07-12T06:27:14.851Z,13.20
2018-07-12T06:29:43.271Z,9.70
2018-07-12T06:32:12.948Z,10.20
2018-07-12T06:34:41.753Z,12.83
2018-07-12T06:37:10.561Z,12.00
2018-07-12T06:39:39.517Z,11.55
2018-07-12T06:42:07.931Z,12.33
2018-07-12T06:44:36.444Z,11.03
2018-07-12T06:47:04.937Z,12.40
2018-07-12T06:49:33.620Z,11.13
2018-07-12T06:52:03.007Z,10.30
2018-07-12T06:54:31.413Z,10.57
2018-07-12T06:57:00.152Z,10.07
2018-07-12T06:59:29.086Z,9.97
2018-07-12T07:01:57.609Z,10.30
2018-07-12T07:04:26.281Z,11.60
2018-07-12T07:06:55.143Z,10.87
2018-07-12T07:09:24.582Z,9.30
2018-07-12T07:11:53.529Z,8.70
2018-07-12T07:14:22.778Z,10.40
2018-07-12T07:16:51.540Z,9.40
2018-07-12T07:19:21.086Z,10.10
2018-07-12T07:21:49.750Z,9.57
2018-07-12T07:24:18.424Z,10.30
2018-07-12T07:26:47.432Z,11.70
2018-07-12T07:29:16.021Z,10.40
2018-07-12T07:31:44.485Z,10.17
2018-07-12T07:34:13.556Z,10.97
2018-07-12T07:36:42.280Z,10.07
2018-07-12T07:39:11.083Z,9.47
2018-07-12T07:41:41.288Z,9.97
2018-07-12T07:44:10.480Z,9.13
2018-07-12T07:46:39.535Z,8.43
2018-07-12T07:49:08.137Z,9.20
2018-07-12T07:51:36.807Z,9.40
2018-07-12T07:54:05.730Z,7.50
2018-07-12T07:56:33.894Z,11.43
2018-07-12T07:59:02.335Z,8.57
2018-07-12T08:01:31.605Z,11.13
2018-07-12T08:04:00.251Z,7.87
2018-07-12T08:06:30.520Z,12.77
2018-07-12T08:08:58.988Z,7.77
2018-07-12T08:11:27.843Z,6.90
2018-07-12T08:13:57.605Z,5.93
2018-07-12T08:16:26.809Z,5.23
2018-07-12T08:18:55.228Z,9.17
2018-07-12T08:21:24.352Z,6.90
2018-07-12T08:23:52.929Z,7.50
2018-07-12T08:26:21.339Z,8.97
2018-07-12T08:28:50.239Z,6.87
2018-07-12T08:31:20.145Z,9.40
2018-07-12T08:33:49.086Z,9.57
2018-07-12T08:36:17.885Z,6.97
2018-07-12T08:38:46.789Z,8.60
2018-07-12T08:41:15.420Z,7.10
2018-07-12T08:43:43.833Z,7.13
2018-07-12T08:46:12.866Z,7.43
2018-07-12T08:48:41.382Z,9.10
2018-07-12T08:51:10.090Z,7.37
2018-07-12T08:53:38.819Z,6.87
2018-07-12T08:56:07.457Z,7.07
2018-07-12T08:58:36.222Z,6.57
2018-07-12T09:01:04.808Z,6.60
2018-07-12T09:03:33.792Z,7.13
2018-07-12T09:06:02.616Z,5.87
2018-07-12T09:08:31.463Z,6.40
2018-07-12T09:10:59.994Z,6.97
2018-07-12T09:13:28.551Z,6.17
2018-07-12T09:15:57.277Z,6.03
2018-07-12T09:18:26.442Z,6.57
2018-07-12T09:20:54.988Z,5.87
2018-07-12T09:23:23.625Z,5.17
2018-07-12T09:25:52.350Z,5.27
2018-07-12T09:28:21.908Z,5.90
2018-07-12T09:30:50.887Z,6.57
2018-07-12T09:33:19.673Z,7.00
2018-07-12T09:35:48.529Z,8.43
2018-07-12T09:38:35.613Z,4.27
2018-07-12T09:41:04.913Z,6.07
2018-07-12T09:43:33.319Z,45.47
2018-07-12T09:46:02.860Z,7.17
2018-07-12T09:48:31.984Z,8.77
2018-07-12T09:51:00.506Z,8.30
2018-07-12T09:53:29.252Z,6.73
2018-07-12T09:55:59.032Z,7.37
2018-07-12T09:58:28.855Z,6.60
2018-07-12T10:03:07.408Z,7.87
2018-07-12T10:05:41.400Z,7.47
2018-07-12T10:08:15.540Z,5.73
2018-07-12T10:10:52.469Z,7.33
2018-07-12T10:13:24.674Z,5.37
2018-07-12T10:15:59.307Z,7.20
2018-07-12T10:18:29.465Z,9.00
2018-07-12T10:20:58.229Z,7.37
2018-07-12T10:23:27.136Z,8.13
2018-07-12T10:25:56.936Z,9.47
2018-07-12T10:28:25.632Z,6.77
2018-07-12T10:30:54.260Z,10.87
2018-07-12T10:33:22.976Z,8.10
2018-07-12T10:35:52.620Z,9.93
2018-07-12T10:38:21.036Z,7.40
2018-07-12T10:40:49.583Z,7.23
2018-07-12T10:43:18.516Z,8.00
2018-07-12T10:45:47.201Z,9.67
2018-07-12T10:48:16.292Z,7.20
2018-07-12T10:50:45.644Z,10.20
2018-07-12T10:53:14.450Z,7.43
2018-07-12T10:55:43.882Z,7.43
2018-07-12T10:58:13.096Z,7.83
2018-07-12T11:00:41.777Z,8.37
2018-07-12T11:03:10.913Z,8.53
2018-07-12T11:05:39.888Z,7.50
2018-07-12T11:08:08.773Z,7.40
2018-07-12T11:10:37.290Z,8.00
2018-07-12T11:19:59.378Z,8.47
2018-07-12T11:22:28.394Z,6.17
2018-07-12T11:24:57.177Z,7.63
2018-07-12T11:27:26.968Z,5.97
2018-07-12T11:29:56.945Z,5.33
2018-07-12T11:32:25.649Z,6.93
2018-07-12T11:34:54.291Z,7.03
2018-07-12T11:37:25.942Z,6.80
2018-07-12T11:39:54.551Z,7.57
2018-07-12T11:42:23.448Z,4.83
2018-07-12T11:44:51.987Z,5.70
2018-07-12T11:47:21.104Z,7.73
2018-07-12T11:49:49.823Z,5.30
2018-07-12T11:52:18.861Z,5.93
2018-07-12T11:54:48.476Z,5.27
2018-07-12T11:57:17.247Z,5.67
2018-07-12T11:59:45.660Z,6.60
2018-07-12T12:02:14.060Z,6.37
2018-07-12T12:04:42.595Z,6.70
2018-07-12T12:07:11.335Z,5.43
2018-07-12T12:09:39.965Z,6.77
2018-07-12T12:12:09.054Z,4.50
2018-07-12T12:14:37.736Z,4.87
2018-07-12T12:17:06.264Z,5.30
2018-07-12T12:19:34.778Z,4.60
2018-07-12T12:22:03.213Z,5.20
2018-07-12T12:24:32.146Z,5.60
2018-07-12T12:27:00.794Z,5.57
2018-07-12T12:29:29.200Z,4.07
2018-07-12T12:31:57.607Z,4.20
2018-07-12T12:34:26.202Z,4.37
2018-07-12T12:36:55.677Z,6.67
2018-07-12T12:39:24.258Z,5.20
2018-07-12T12:41:52.703Z,6.10
2018-07-12T12:44:21.191Z,4.63
2018-07-12T12:46:49.676Z,4.00
2018-07-12T12:49:19.163Z,5.33
2018-07-12T12:51:47.797Z,3.47
2018-07-12T12:54:16.646Z,5.83
2018-07-12T12:56:45.439Z,8.33
2018-07-12T12:59:14.026Z,3.20
2018-07-12T13:01:42.707Z,5.63
2018-07-12T13:04:11.480Z,5.00
2018-07-12T13:06:40.322Z,5.13
2018-07-12T13:09:09.111Z,4.37
2018-07-12T13:11:38.092Z,3.53
2018-07-12T13:14:06.529Z,3.33
2018-07-12T13:16:36.851Z,3.17
2018-07-12T13:19:05.631Z,4.53
2018-07-12T13:21:34.304Z,4.40
2018-07-12T13:24:02.790Z,3.50
2018-07-12T13:26:32.140Z,5.87
2018-07-12T13:29:00.569Z,5.83
2018-07-12T13:31:29.449Z,2.57
2018-07-12T13:33:58.627Z,3.63
2018-07-12T13:36:29.197Z,4.10
2018-07-12T13:38:58.019Z,2.60
2018-07-12T13:41:27.076Z,5.37
2018-07-12T13:44:07.054Z,4.93
2018-07-12T13:46:36.076Z,6.80
2018-07-12T13:49:05.501Z,3.03
2018-07-12T13:51:34.392Z,2.90
2018-07-12T13:54:03.281Z,3.20
2018-07-12T13:56:32.442Z,4.63
2018-07-12T13:59:01.256Z,4.03
2018-07-12T14:01:29.698Z,3.30
2018-07-12T14:03:58.684Z,4.43
2018-07-12T14:06:27.161Z,3.20
2018-07-12T14:08:55.943Z,5.07
2018-07-12T14:11:25.382Z,4.80
2018-07-12T14:13:53.886Z,4.80
2018-07-12T14:16:22.727Z,3.50
2018-07-12T14:18:53.081Z,2.43
2018-07-12T14:21:21.813Z,4.97
2018-07-12T14:23:50.223Z,4.17
2018-07-12T14:26:19.548Z,3.73
2018-07-12T14:28:48.584Z,3.97
2018-07-12T14:31:17.635Z,6.13
2018-07-12T14:33:46.892Z,4.40
2018-07-12T14:36:16.466Z,3.67
2018-07-12T14:38:45.150Z,3.13
2018-07-12T14:41:14.320Z,2.67
2018-07-12T14:43:42.742Z,4.53
2018-07-12T14:46:11.616Z,4.13
2018-07-12T14:48:40.331Z,3.37
2018-07-12T14:51:09.782Z,4.33
2018-07-12T14:53:38.450Z,3.97
2018-07-12T14:56:07.277Z,4.00
2018-07-12T14:58:35.934Z,6.43
2018-07-12T15:01:05.076Z,3.33
2018-07-12T15:03:33.527Z,3.67
2018-07-12T15:06:02.246Z,3.40
2018-07-12T15:08:31.801Z,2.27
2018-07-12T15:11:00.558Z,4.40
2018-07-12T15:13:28.993Z,2.97
2018-07-12T15:15:57.466Z,3.10
2018-07-12T15:18:26.148Z,3.03
2018-07-12T15:20:56.075Z,4.43
2018-07-12T15:23:24.891Z,1.93
2018-07-12T15:25:53.631Z,2.40
2018-07-12T15:28:22.933Z,4.50
2018-07-12T15:30:51.616Z,3.57
2018-07-12T15:33:20.181Z,2.67
2018-07-12T15:35:49.069Z,2.27
2018-07-12T15:38:18.491Z,2.63
2018-07-12T15:40:47.028Z,2.33
2018-07-12T15:43:15.921Z,1.93
2018-07-12T15:45:45.265Z,2.37
2018-07-12T15:48:13.821Z,2.20
2018-07-12T15:50:42.618Z,2.07
2018-07-12T15:53:11.280Z,3.07
2018-07-12T15:55:39.890Z,2.70
2018-07-12T15:58:09.037Z,2.17
2018-07-12T16:00:37.651Z,3.10
2018-07-12T16:03:06.583Z,2.03
2018-07-12T16:05:35.433Z,2.17
2018-07-12T16:08:04.987Z,2.47
2018-07-12T16:10:33.651Z,2.60
2018-07-12T16:13:02.118Z,35.10
2018-07-12T16:15:30.973Z,4.50
2018-07-12T16:18:00.676Z,4.83
2018-07-12T16:20:30.667Z,3.63
2018-07-12T16:22:59.516Z,22.13
2018-07-12T16:25:28.145Z,5.03
2018-07-12T16:27:57.022Z,3.07
2018-07-12T16:30:25.438Z,2.60
2018-07-12T16:32:54.122Z,4.50
2018-07-12T16:35:23.880Z,2.80
2018-07-12T16:37:53.650Z,2.33
2018-07-12T16:40:22.277Z,4.80
2018-07-12T16:42:51.959Z,3.03
2018-07-12T16:45:20.938Z,3.40
2018-07-12T16:47:57.436Z,1.97
2018-07-12T16:50:27.012Z,2.30
2018-07-12T16:52:56.601Z,2.40
2018-07-12T16:55:25.026Z,3.20
2018-07-12T16:57:53.451Z,2.40
2018-07-12T17:00:22.734Z,3.70
2018-07-12T17:02:51.383Z,2.63
2018-07-12T17:05:20.064Z,3.13
2018-07-12T17:07:48.687Z,24.63
2018-07-12T17:10:17.799Z,4.53
2018-07-12T17:12:47.295Z,2.73
2018-07-12T17:15:16.059Z,1.73
2018-07-12T17:17:44.164Z,4.10
2018-07-12T17:20:12.834Z,2.47
2018-07-12T17:22:42.323Z,2.03
2018-07-12T17:25:11.160Z,1.93
2018-07-12T17:27:39.881Z,4.43
2018-07-12T17:30:09.173Z,2.20
2018-07-12T17:32:37.584Z,1.80
2018-07-12T17:35:06.221Z,3.53
2018-07-12T17:37:35.759Z,2.27
2018-07-12T17:40:04.582Z,2.17
2018-07-12T17:42:33.322Z,4.00
2018-07-12T17:45:03.990Z,2.33
2018-07-12T17:59:21.343Z,5.33
2018-07-12T18:01:49.952Z,2.10
2018-07-12T18:04:19.676Z,2.20
2018-07-12T18:06:48.429Z,2.47
2018-07-12T18:09:17.933Z,1.93
2018-07-12T18:11:46.581Z,2.70
2018-07-12T18:14:15.474Z,1.80
2018-07-12T18:16:44.961Z,2.40
2018-07-12T18:19:13.665Z,3.33
2018-07-12T18:21:42.141Z,2.00
2018-07-12T18:24:10.690Z,3.10
2018-07-12T18:26:39.134Z,2.07
2018-07-12T18:29:08.563Z,2.13
2018-07-12T18:31:37.025Z,4.63
2018-07-12T18:34:05.616Z,3.33
2018-07-12T18:36:35.169Z,2.90
2018-07-12T18:39:04.803Z,3.23
2018-07-12T18:41:33.327Z,5.87
2018-07-12T18:44:01.816Z,2.80
2018-07-12T18:46:31.435Z,3.07
2018-07-12T18:49:00.219Z,5.13
2018-07-12T18:51:29.736Z,2.77
2018-07-12T18:53:58.511Z,2.00
2018-07-12T18:56:27.711Z,3.07
2018-07-12T18:58:56.214Z,2.40
2018-07-12T19:01:25.251Z,2.53
2018-07-12T19:03:53.969Z,2.63
2018-07-12T19:06:22.783Z,3.00
2018-07-12T19:08:51.513Z,2.40
2018-07-12T19:11:19.964Z,4.10
2018-07-12T19:13:49.120Z,4.93
2018-07-12T19:16:18.082Z,3.67
2018-07-12T19:18:46.941Z,3.70
2018-07-12T19:21:16.079Z,2.83
2018-07-12T19:23:44.518Z,2.53
2018-07-12T19:26:13.398Z,4.73
2018-07-12T19:28:42.365Z,3.20
2018-07-12T19:31:11.680Z,4.30
2018-07-12T19:33:40.739Z,4.33
2018-07-12T19:36:09.205Z,4.03
2018-07-12T19:38:37.789Z,3.30
2018-07-12T19:41:07.750Z,3.87
2018-07-12T19:43:36.799Z,4.07
2018-07-12T19:46:05.521Z,2.90
2018-07-12T19:48:34.605Z,4.67
2018-07-12T19:51:03.279Z,4.30
2018-07-12T19:53:31.821Z,5.37
2018-07-12T19:56:01.162Z,4.03
2018-07-12T19:58:30.098Z,3.73
2018-07-12T20:00:59.079Z,2.90
2018-07-12T20:03:27.654Z,3.70
2018-07-12T20:05:57.823Z,4.33
2018-07-12T20:08:27.571Z,4.77
2018-07-12T20:10:56.720Z,4.67
2018-07-12T20:13:26.297Z,3.27
2018-07-12T20:15:54.964Z,5.90
2018-07-12T20:18:24.342Z,2.70
2018-07-12T20:20:53.718Z,3.73
2018-07-12T20:23:22.362Z,3.67
2018-07-12T20:25:51.296Z,4.30
2018-07-12T20:28:19.811Z,5.47
2018-07-12T20:30:49.963Z,5.87
2018-07-12T20:33:18.380Z,4.17
2018-07-12T20:35:46.964Z,6.23
2018-07-12T20:38:16.189Z,9.20
2018-07-12T20:40:45.737Z,9.77
2018-07-12T20:43:18.474Z,7.57
2018-07-12T20:45:47.985Z,7.10
2018-07-12T20:48:16.679Z,7.20
2018-07-12T20:50:45.728Z,13.47
2018-07-12T20:53:14.835Z,8.03
2018-07-12T20:55:43.496Z,9.27
2018-07-12T20:58:12.793Z,7.80
2018-07-12T21:00:41.238Z,5.70
2018-07-12T21:03:09.638Z,6.13
2018-07-12T21:05:38.634Z,5.37
2018-07-12T21:08:07.066Z,4.27
2018-07-12T21:10:35.156Z,5.73
2018-07-12T21:13:03.846Z,4.37
2018-07-12T21:15:32.646Z,4.10
2018-07-12T21:18:02.213Z,6.10
2018-07-12T21:20:31.294Z,5.80
2018-07-12T21:22:59.930Z,5.13
2018-07-12T21:25:29.116Z,7.30
2018-07-12T21:27:57.874Z,5.73
2018-07-12T21:30:26.262Z,5.30
2018-07-12T21:32:54.752Z,4.30
2018-07-12T21:35:23.472Z,3.97
2018-07-12T21:37:52.443Z,5.73
2018-07-12T21:40:20.880Z,5.97
2018-07-12T21:42:49.309Z,4.20
2018-07-12T21:45:17.729Z,4.63
2018-07-12T21:47:46.427Z,5.63
2018-07-12T21:50:14.890Z,6.17
2018-07-12T21:52:43.545Z,4.03
